Time;durP1;ratioP1;P1;durP2;ratioP2;P2;SDS_P1;SDS_P2;PMS_P1;PMS_P2;Temp;Humidity;BMP_temperature;BMP_pressure;BME280_temperature;BME280_humidity;BME280_pressure;Samples;Min_cycle;Max_cycle;Signal;HPM_P1;HPM_P2
2022/01/01 00:02:06;;;;;;;66.68;52.63;;;;;;;11.21;100.00;100921.84;5036255;28;20136;-61
2022/01/01 00:04:53;;;;;;;54.30;42.97;;;;;;;11.20;100.00;100931.56;5025473;28;20041;-60
2022/01/01 00:07:20;;;;;;;50.47;38.20;;;;;;;11.20;100.00;100928.91;5030382;28;20099;-60
2022/01/01 00:09:47;;;;;;;44.35;35.83;;;;;;;11.21;100.00;100941.16;5024506;28;20053;-59
2022/01/01 00:12:15;;;;;;;36.63;27.58;;;;;;;11.22;100.00;100921.78;5034230;28;20053;-60
2022/01/01 00:14:42;;;;;;;36.55;28.15;;;;;;;11.26;100.00;100935.66;5010735;28;20045;-58
2022/01/01 00:17:09;;;;;;;39.83;29.52;;;;;;;11.25;100.00;100926.00;5033436;28;20052;-61
2022/01/01 00:19:36;;;;;;;35.58;28.58;;;;;;;11.22;100.00;100942.03;5026850;28;20076;-60
2022/01/01 00:22:03;;;;;;;30.98;23.73;;;;;;;11.27;100.00;100937.34;5030384;28;20069;-59
2022/01/01 00:24:30;;;;;;;29.48;21.42;;;;;;;11.25;100.00;100941.84;5025742;28;20871;-61
2022/01/01 00:26:57;;;;;;;27.50;20.70;;;;;;;11.27;100.00;100947.88;5033423;28;20637;-62
2022/01/01 00:29:25;;;;;;;24.73;19.83;;;;;;;11.30;100.00;100942.41;5026639;28;20144;-62
2022/01/01 00:31:52;;;;;;;27.77;20.27;;;;;;;11.29;100.00;100949.47;5031888;28;20442;-59
2022/01/01 00:34:19;;;;;;;24.50;19.52;;;;;;;11.24;100.00;100963.84;5029892;28;20056;-60
2022/01/01 00:36:46;;;;;;;23.40;19.60;;;;;;;11.33;100.00;100972.09;5037360;28;20052;-58
2022/01/01 00:39:13;;;;;;;23.05;18.02;;;;;;;11.38;100.00;100966.56;5031861;28;20057;-59
2022/01/01 00:41:41;;;;;;;22.77;17.20;;;;;;;11.37;100.00;100967.50;5030949;28;20045;-61
2022/01/01 00:44:09;;;;;;;20.15;16.23;;;;;;;11.37;100.00;100970.13;5028906;28;20060;-58
2022/01/01 00:46:36;;;;;;;23.05;15.65;;;;;;;11.39;100.00;100976.16;5034583;28;20045;-60
2022/01/01 00:49:03;;;;;;;21.05;16.48;;;;;;;11.34;100.00;100980.84;5022282;28;20049;-59
2022/01/01 00:51:30;;;;;;;24.98;16.50;;;;;;;11.33;100.00;100982.63;5033461;28;20547;-61
2022/01/01 00:53:57;;;;;;;21.35;17.30;;;;;;;11.32;100.00;100995.91;5031128;28;20063;-61
2022/01/01 00:56:25;;;;;;;19.23;14.88;;;;;;;11.32;100.00;100995.91;5031995;28;20044;-61
2022/01/01 00:58:52;;;;;;;20.35;15.35;;;;;;;11.35;100.00;100988.69;5008367;28;20063;-61
2022/01/01 01:01:19;;;;;;;25.35;15.73;;;;;;;11.38;100.00;100995.56;5017760;28;20036;-60
2022/01/01 01:03:46;;;;;;;17.80;14.73;;;;;;;11.34;100.00;100997.50;5030242;28;20049;-60
2022/01/01 01:06:14;;;;;;;18.95;15.05;;;;;;;11.34;100.00;101000.13;5031102;28;20045;-60
2022/01/01 01:08:41;;;;;;;19.92;16.65;;;;;;;11.38;100.00;101000.81;5027558;28;20057;-59
2022/01/01 01:11:08;;;;;;;20.00;15.63;;;;;;;11.33;100.00;100998.44;5031876;28;20064;-58
2022/01/01 01:13:36;;;;;;;20.17;16.40;;;;;;;11.36;100.00;101002.72;5024005;28;20589;-60
2022/01/01 01:16:03;;;;;;;22.88;16.55;;;;;;;11.36;100.00;100998.28;5029298;28;20103;-58
2022/01/01 01:18:30;;;;;;;17.20;13.77;;;;;;;11.37;100.00;101013.16;5027817;28;20264;-60
2022/01/01 01:20:58;;;;;;;20.80;14.88;;;;;;;11.36;100.00;101007.97;5021625;28;20077;-60
2022/01/01 01:23:25;;;;;;;19.38;14.75;;;;;;;11.30;100.00;101009.19;5027834;28;20055;-62
2022/01/01 01:25:54;;;;;;;22.23;16.92;;;;;;;11.33;100.00;101016.91;5029826;28;20409;-60
2022/01/01 01:28:22;;;;;;;23.13;16.02;;;;;;;11.29;100.00;101023.28;5021365;28;20065;-60
2022/01/01 01:30:49;;;;;;;19.98;16.25;;;;;;;11.26;100.00;101028.72;5018931;28;20059;-61
2022/01/01 01:33:16;;;;;;;19.38;15.95;;;;;;;11.22;100.00;101032.47;5022334;28;20087;-60
2022/01/01 01:35:43;;;;;;;23.13;15.63;;;;;;;11.25;100.00;101039.34;5028843;28;20048;-60
2022/01/01 01:38:10;;;;;;;26.17;16.92;;;;;;;11.23;100.00;101028.91;5039215;28;20056;-59
2022/01/01 01:40:37;;;;;;;22.42;15.77;;;;;;;11.22;100.00;101055.34;5026323;28;20073;-58
2022/01/01 01:43:10;;;;;;;20.13;15.35;;;;;;;11.19;100.00;101053.72;5034162;28;20524;-60
2022/01/01 01:45:37;;;;;;;22.08;15.68;;;;;;;11.22;100.00;101053.56;5029386;28;20053;-61
2022/01/01 01:48:05;;;;;;;23.48;17.23;;;;;;;11.22;100.00;101060.63;5037358;28;20064;-60
2022/01/01 01:50:35;;;;;;;22.95;16.58;;;;;;;11.21;100.00;101059.75;5030223;28;20064;-60
2022/01/01 01:53:02;;;;;;;20.95;14.57;;;;;;;11.22;100.00;101060.63;5037971;28;20049;-61
2022/01/01 01:55:30;;;;;;;22.08;17.10;;;;;;;11.21;100.00;101061.53;5035060;28;20136;-61
2022/01/01 01:57:57;;;;;;;19.98;15.48;;;;;;;11.22;100.00;101061.47;5032682;28;20052;-60
2022/01/01 02:00:54;;;;;;;29.08;18.20;;;;;;;11.19;100.00;101066.03;5034435;28;20071;-59
2022/01/01 02:03:18;;;;;;;28.08;16.77;;;;;;;11.19;100.00;101066.03;5032545;28;20409;-60
2022/01/01 02:05:45;;;;;;;20.05;16.08;;;;;;;11.15;100.00;101071.47;5033117;28;20072;-60
2022/01/01 02:08:14;;;;;;;22.75;16.17;;;;;;;11.14;100.00;101072.41;5027998;28;20053;-61
2022/01/01 02:10:42;;;;;;;22.63;16.45;;;;;;;11.10;100.00;101070.88;5034286;28;20163;-59
2022/01/01 02:13:14;;;;;;;22.20;15.48;;;;;;;11.11;100.00;101093.66;5019471;28;20057;-60
2022/01/01 02:15:58;;;;;;;17.38;13.07;;;;;;;11.15;100.00;101074.09;5032735;28;20510;-60
2022/01/01 02:18:25;;;;;;;20.15;15.18;;;;;;;11.18;100.00;101075.75;5027838;28;20461;-61
2022/01/01 02:20:55;;;;;;;21.55;14.63;;;;;;;11.15;100.00;101081.16;5015793;28;20049;-57
2022/01/01 02:23:25;;;;;;;21.88;15.07;;;;;;;11.19;100.00;101089.75;5013445;28;20053;-60
2022/01/01 02:25:54;;;;;;;20.13;14.18;;;;;;;11.16;100.00;101098.66;5031548;28;20470;-60
2022/01/01 02:28:22;;;;;;;19.65;13.82;;;;;;;11.25;100.00;101086.78;5029861;28;20057;-59
2022/01/01 02:30:50;;;;;;;20.50;14.40;;;;;;;11.19;100.00;101095.03;5022490;28;20060;-59
2022/01/01 02:33:17;;;;;;;19.33;15.05;;;;;;;11.20;100.00;101089.66;5033761;28;20049;-59
2022/01/01 02:35:45;;;;;;;23.20;14.40;;;;;;;11.20;100.00;101083.53;5031522;28;20502;-60
2022/01/01 02:38:12;;;;;;;18.05;13.88;;;;;;;11.23;100.00;101086.03;5017335;28;20141;-60
2022/01/01 02:40:40;;;;;;;22.20;14.27;;;;;;;11.22;100.00;101089.59;5021558;28;20054;-61
2022/01/01 02:43:07;;;;;;;16.92;12.43;;;;;;;11.25;100.00;101085.00;5040284;28;20108;-61
2022/01/01 02:45:34;;;;;;;17.38;13.80;;;;;;;11.24;100.00;101098.25;5025372;28;20128;-59
2022/01/01 02:48:02;;;;;;;18.27;13.60;;;;;;;11.16;100.00;101093.41;5031529;28;20080;-59
2022/01/01 02:50:29;;;;;;;22.48;14.75;;;;;;;11.15;100.00;101094.34;5022454;28;20461;-60
2022/01/01 02:52:56;;;;;;;22.70;16.48;;;;;;;11.14;100.00;101095.28;5038804;28;20053;-61
2022/01/01 02:55:23;;;;;;;23.92;16.48;;;;;;;11.16;100.00;101088.97;5033169;28;20047;-59
2022/01/01 02:57:50;;;;;;;23.90;15.13;;;;;;;11.14;100.00;101103.19;5029366;28;20504;-60
2022/01/01 03:00:17;;;;;;;23.40;14.73;;;;;;;11.15;100.00;101094.34;5027837;28;20144;-61
2022/01/01 03:02:45;;;;;;;24.90;14.60;;;;;;;11.07;100.00;101100.00;5036550;28;20049;-61
2022/01/01 03:05:13;;;;;;;25.20;14.43;;;;;;;11.08;100.00;101109.63;5032173;28;20571;-60
2022/01/01 03:07:40;;;;;;;28.25;14.70;;;;;;;11.12;100.00;101111.19;5029635;28;20124;-59
2022/01/01 03:10:07;;;;;;;22.90;13.68;;;;;;;11.12;100.00;101105.91;5029635;28;20054;-59
2022/01/01 03:12:34;;;;;;;30.38;15.07;;;;;;;11.10;100.00;101110.41;5035428;28;20041;-59
2022/01/01 03:15:01;;;;;;;19.67;13.93;;;;;;;11.11;100.00;101129.69;5029786;28;20126;-60
2022/01/01 03:17:29;;;;;;;20.77;14.02;;;;;;;11.11;100.00;101120.00;5033816;28;20056;-60
2022/01/01 03:19:56;;;;;;;26.63;14.73;;;;;;;11.10;100.00;101112.19;5025017;28;20528;-58
2022/01/01 03:22:23;;;;;;;23.17;14.40;;;;;;;11.16;100.00;101131.13;5036770;28;20270;-60
2022/01/01 03:24:50;;;;;;;23.27;14.52;;;;;;;11.15;100.00;101126.81;5028016;28;20050;-59
2022/01/01 03:27:17;;;;;;;22.20;13.32;;;;;;;11.17;100.00;101124.13;5029344;28;20152;-57
2022/01/01 03:29:44;;;;;;;22.42;12.68;;;;;;;11.18;100.00;101141.63;5022335;28;20415;-58
2022/01/01 03:32:12;;;;;;;18.70;11.88;;;;;;;11.19;100.00;101135.41;5035288;28;20052;-59
2022/01/01 03:34:39;;;;;;;20.30;13.27;;;;;;;11.13;100.00;101131.31;5026187;28;20126;-60
2022/01/01 03:37:06;;;;;;;28.25;12.52;;;;;;;11.18;100.00;101146.88;5036215;28;20064;-60
2022/01/01 03:39:33;;;;;;;16.48;10.70;;;;;;;11.16;100.00;101146.94;5029034;28;20057;-61
2022/01/01 03:42:00;;;;;;;26.63;12.40;;;;;;;11.16;100.00;101157.50;5041614;28;20060;-61
2022/01/01 03:44:27;;;;;;;17.40;11.02;;;;;;;11.13;100.00;101146.28;5027624;28;20072;-60
2022/01/01 03:47:04;;;;;;;23.48;12.18;;;;;;;11.11;100.00;101135.81;5034635;28;20156;-60
2022/01/01 03:49:31;;;;;;;23.25;10.85;;;;;;;11.16;100.00;101136.41;5023456;28;20061;-60
2022/01/01 03:51:58;;;;;;;23.35;11.73;;;;;;;11.14;100.00;101143.56;5039602;28;20514;-60
2022/01/01 03:54:25;;;;;;;18.35;11.35;;;;;;;11.16;100.00;101138.19;5026845;28;20514;-61
2022/01/01 03:56:53;;;;;;;24.85;11.57;;;;;;;11.16;100.00;101140.84;5026694;28;20060;-60
2022/01/01 03:59:20;;;;;;;21.30;10.82;;;;;;;11.18;100.00;101143.41;5026850;28;20084;-57
2022/01/01 04:01:48;;;;;;;19.33;10.95;;;;;;;11.21;100.00;101144.06;5036868;28;20061;-58
2022/01/01 04:04:15;;;;;;;23.08;10.63;;;;;;;11.19;100.00;101140.69;5027236;28;20045;-61
2022/01/01 04:06:42;;;;;;;23.42;10.43;;;;;;;11.23;100.00;101146.66;5031224;28;20581;-59
2022/01/01 04:09:09;;;;;;;17.98;9.60;;;;;;;11.22;100.00;101161.59;5026581;28;20058;-59
2022/01/01 04:11:37;;;;;;;23.23;11.23;;;;;;;11.21;100.00;101156.41;5029541;28;20050;-59
2022/01/01 04:14:04;;;;;;;18.92;10.20;;;;;;;11.21;100.00;101166.94;5025675;28;20152;-60
2022/01/01 04:16:31;;;;;;;21.13;10.57;;;;;;;11.16;100.00;101161.91;5028678;28;20125;-58
2022/01/01 04:18:58;;;;;;;22.60;11.43;;;;;;;11.22;100.00;101152.84;5013028;28;20152;-60
2022/01/01 04:21:28;;;;;;;24.45;10.82;;;;;;;11.23;100.00;101160.66;5029631;28;20060;-59
2022/01/01 04:23:55;;;;;;;25.02;11.50;;;;;;;11.27;100.00;101188.56;5034665;28;20056;-60
2022/01/01 04:26:24;;;;;;;20.70;11.52;;;;;;;11.20;100.00;101178.41;5027909;28;20061;-59
2022/01/01 04:28:51;;;;;;;19.10;11.10;;;;;;;11.21;100.00;101188.03;5032001;28;20140;-59
2022/01/01 04:31:18;;;;;;;23.15;11.25;;;;;;;11.19;100.00;101182.84;5025634;28;20386;-60
2022/01/01 04:33:46;;;;;;;19.02;9.90;;;;;;;11.16;100.00;101183.84;5037319;28;20505;-58
2022/01/01 04:36:13;;;;;;;22.55;11.18;;;;;;;11.18;100.00;101181.16;5028650;28;20103;-60
2022/01/01 04:38:42;;;;;;;19.00;11.05;;;;;;;11.20;100.00;101178.41;5028056;28;20050;-59
2022/01/01 04:41:12;;;;;;;18.13;11.20;;;;;;;11.19;100.00;101168.81;5030810;28;20063;-60
2022/01/01 04:43:46;;;;;;;23.05;11.10;;;;;;;11.15;100.00;101162.84;5032499;28;20053;-60
2022/01/01 04:46:13;;;;;;;25.27;12.18;;;;;;;11.13;100.00;101176.13;5030394;28;20073;-59
2022/01/01 04:48:40;;;;;;;22.52;11.07;;;;;;;11.10;100.00;101181.53;5027314;28;20084;-57
2022/01/01 04:51:09;;;;;;;21.90;11.23;;;;;;;11.12;100.00;101186.72;5034421;28;20502;-55
2022/01/01 04:53:38;;;;;;;27.35;11.35;;;;;;;11.14;100.00;101182.22;5031164;28;20386;-60
2022/01/01 04:56:07;;;;;;;22.90;9.85;;;;;;;11.21;100.00;101193.28;5025395;28;20060;-59
2022/01/01 04:58:35;;;;;;;24.98;11.02;;;;;;;11.16;100.00;101193.53;5021364;28;20119;-58
2022/01/01 05:01:02;;;;;;;18.60;11.25;;;;;;;11.18;100.00;101188.22;5031523;28;20055;-60
2022/01/01 05:03:30;;;;;;;19.27;11.68;;;;;;;11.18;100.00;101185.56;5028423;28;20053;-59
2022/01/01 05:05:57;;;;;;;23.17;13.15;;;;;;;11.12;100.00;101190.22;5029181;28;20152;-60
2022/01/01 05:08:24;;;;;;;21.90;11.05;;;;;;;11.14;100.00;101188.34;5027853;28;20053;-60
2022/01/01 05:10:51;;;;;;;21.42;11.98;;;;;;;11.14;100.00;101187.50;5025439;28;20049;-58
2022/01/01 05:13:19;;;;;;;23.80;11.75;;;;;;;11.13;100.00;101189.28;5030357;28;20520;-59
2022/01/01 05:15:46;;;;;;;21.83;11.82;;;;;;;11.16;100.00;101194.38;5026165;28;20346;-58
2022/01/01 05:18:16;;;;;;;30.52;14.07;;;;;;;11.13;100.00;101199.84;5016380;28;20472;-58
2022/01/01 05:20:43;;;;;;;20.52;11.07;;;;;;;11.11;100.00;101220.13;5028494;28;20486;-57
2022/01/01 05:23:10;;;;;;;20.27;11.88;;;;;;;11.11;100.00;101203.47;5037319;28;20067;-59
2022/01/01 05:25:37;;;;;;;23.55;12.30;;;;;;;11.09;100.00;101195.66;5028137;28;20307;-58
2022/01/01 05:28:04;;;;;;;22.67;11.85;;;;;;;11.08;100.00;101211.56;5038362;28;20080;-59
2022/01/01 05:30:32;;;;;;;24.33;13.63;;;;;;;11.10;100.00;101213.16;5030049;28;20150;-60
2022/01/01 05:33:00;;;;;;;23.63;13.63;;;;;;;11.08;100.00;101209.75;5040592;28;20419;-59
2022/01/01 05:35:28;;;;;;;30.92;14.55;;;;;;;11.06;100.00;101214.25;5029734;28;20423;-60
2022/01/01 05:37:55;;;;;;;28.13;14.30;;;;;;;11.10;100.00;101218.44;5040640;28;20067;-60
2022/01/01 05:40:23;;;;;;;26.73;13.05;;;;;;;11.13;100.00;101213.00;5033445;28;20053;-58
2022/01/01 05:42:50;;;;;;;25.20;13.20;;;;;;;11.15;100.00;101223.47;5036472;28;20049;-58
2022/01/01 05:45:18;;;;;;;27.15;13.98;;;;;;;11.14;100.00;101224.41;5032668;28;20056;-56
2022/01/01 05:47:45;;;;;;;26.40;13.48;;;;;;;11.15;100.00;101229.56;5033837;28;20045;-59
2022/01/01 05:50:12;;;;;;;26.85;13.32;;;;;;;11.13;100.00;101226.19;5031507;28;20461;-59
2022/01/01 05:52:39;;;;;;;31.65;14.43;;;;;;;11.20;100.00;101229.34;5037296;28;20137;-58
2022/01/01 05:55:07;;;;;;;29.77;13.60;;;;;;;11.14;100.00;101234.94;5030133;28;20486;-59
2022/01/01 05:57:34;;;;;;;28.48;14.43;;;;;;;11.12;100.00;101235.03;5034783;28;20056;-57
2022/01/01 06:00:01;;;;;;;30.42;15.05;;;;;;;11.13;100.00;101234.09;5011508;28;20075;-59
2022/01/01 06:02:28;;;;;;;26.13;14.07;;;;;;;11.11;100.00;101245.63;5036654;28;20289;-58
2022/01/01 06:04:55;;;;;;;28.08;14.30;;;;;;;11.07;100.00;101258.09;5033987;28;20049;-57
2022/01/01 06:07:22;;;;;;;31.75;14.18;;;;;;;11.09;100.00;101244.88;5031763;28;20057;-58
2022/01/01 06:09:50;;;;;;;25.80;13.90;;;;;;;11.08;100.00;101262.47;5023470;28;20502;-58
2022/01/01 06:12:17;;;;;;;31.35;14.60;;;;;;;11.09;100.00;101251.00;5035046;28;20056;-60
2022/01/01 06:14:44;;;;;;;24.17;13.35;;;;;;;11.11;100.00;101259.66;5028507;28;20093;-59
2022/01/01 06:17:11;;;;;;;30.20;14.27;;;;;;;11.14;100.00;101261.28;5034915;28;20052;-59
2022/01/01 06:19:38;;;;;;;29.25;14.23;;;;;;;11.14;100.00;101261.28;5030829;28;20077;-58
2022/01/01 06:22:05;;;;;;;28.48;13.85;;;;;;;11.11;100.00;101267.56;5030963;28;20049;-58
2022/01/01 06:24:32;;;;;;;29.50;13.80;;;;;;;11.18;100.00;101269.91;5027297;28;20180;-60
2022/01/01 06:26:59;;;;;;;31.80;14.52;;;;;;;11.14;100.00;101272.69;5035917;28;20413;-60
2022/01/01 06:29:27;;;;;;;27.33;13.63;;;;;;;11.17;100.00;101276.97;5030984;28;20510;-60
2022/01/01 06:31:58;;;;;;;25.88;13.75;;;;;;;11.15;100.00;101274.38;5036247;28;20049;-57
2022/01/01 06:34:26;;;;;;;31.33;14.38;;;;;;;11.17;100.00;101282.22;5031623;28;20407;-56
2022/01/01 06:36:53;;;;;;;26.48;13.48;;;;;;;11.18;100.00;101277.81;5039754;28;20041;-59
2022/01/01 06:39:20;;;;;;;27.58;13.43;;;;;;;11.13;100.00;101280.69;5030508;28;20059;-61
2022/01/01 06:41:48;;;;;;;24.30;13.55;;;;;;;11.10;100.00;101283.44;5035135;28;20045;-60
2022/01/01 06:44:15;;;;;;;23.73;13.38;;;;;;;11.12;100.00;101279.81;5024471;28;20060;-59
2022/01/01 06:46:43;;;;;;;24.75;13.98;;;;;;;11.16;100.00;101281.34;5039442;28;20140;-58
2022/01/01 06:49:10;;;;;;;29.45;14.30;;;;;;;11.16;100.00;101283.97;5026402;28;20054;-58
2022/01/01 06:51:37;;;;;;;33.08;15.05;;;;;;;11.12;100.00;101290.38;5030451;28;20124;-57
2022/01/01 06:54:05;;;;;;;25.35;14.90;;;;;;;11.12;100.00;101290.38;5029793;28;20128;-60
2022/01/01 06:56:32;;;;;;;33.17;14.50;;;;;;;11.11;100.00;101293.91;5026055;28;20156;-56
2022/01/01 06:58:59;;;;;;;30.27;15.13;;;;;;;11.10;100.00;101302.75;5026830;28;20057;-58
2022/01/01 07:01:26;;;;;;;30.17;15.48;;;;;;;11.16;100.00;101306.84;5031931;28;20057;-57
2022/01/01 07:03:54;;;;;;;27.15;14.30;;;;;;;11.16;100.00;101304.22;5013594;28;20052;-61
2022/01/01 07:06:22;;;;;;;27.20;14.15;;;;;;;11.10;100.00;101307.16;5030650;28;20041;-62
2022/01/01 07:08:49;;;;;;;29.92;14.13;;;;;;;11.13;100.00;101307.88;5036825;28;20049;-61
2022/01/01 07:11:16;;;;;;;32.13;15.77;;;;;;;11.14;100.00;101306.94;5023986;28;20132;-58
2022/01/01 07:13:43;;;;;;;34.15;15.95;;;;;;;11.12;100.00;101316.72;5026889;28;20410;-60
2022/01/01 07:16:10;;;;;;;33.08;14.52;;;;;;;11.10;100.00;101315.06;5036755;28;20053;-58
2022/01/01 07:18:37;;;;;;;29.58;14.93;;;;;;;11.12;100.00;101314.09;5035182;28;20060;-62
2022/01/01 07:21:04;;;;;;;28.05;14.57;;;;;;;11.10;100.00;101308.03;5029223;28;20128;-60
2022/01/01 07:23:32;;;;;;;32.80;14.65;;;;;;;11.10;100.00;101318.56;5026041;28;20063;-57
2022/01/01 07:25:59;;;;;;;25.58;14.48;;;;;;;11.15;100.00;101319.19;5030953;28;20120;-60
2022/01/01 07:28:26;;;;;;;31.33;15.02;;;;;;;11.19;100.00;101321.66;5038031;28;20648;-60
2022/01/01 07:30:53;;;;;;;29.90;14.48;;;;;;;11.12;100.00;101327.25;5027608;28;20085;-59
2022/01/01 07:33:20;;;;;;;28.83;14.63;;;;;;;11.12;100.00;101332.53;5028224;28;20059;-61
2022/01/01 07:35:47;;;;;;;30.58;14.57;;;;;;;11.13;100.00;101323.69;5034951;28;20475;-59
2022/01/01 07:38:14;;;;;;;35.60;14.65;;;;;;;11.13;100.00;101336.88;5032617;28;20065;-61
2022/01/01 07:40:41;;;;;;;29.73;14.63;;;;;;;11.16;100.00;101341.97;5029253;28;20055;-62
2022/01/01 07:43:11;;;;;;;26.20;14.02;;;;;;;11.16;100.00;101328.78;5035899;28;20135;-58
2022/01/01 07:45:38;;;;;;;35.30;14.38;;;;;;;11.21;100.00;101339.09;5032782;28;20095;-61
2022/01/01 07:48:06;;;;;;;24.58;13.95;;;;;;;11.21;100.00;101356.69;5056624;22;20061;-62
2022/01/01 07:50:34;;;;;;;35.95;16.00;;;;;;;11.15;100.00;101358.72;5043323;28;20049;-64
2022/01/01 07:53:01;;;;;;;24.40;13.45;;;;;;;11.19;100.00;101359.41;5046357;28;20521;-64
2022/01/01 07:55:29;;;;;;;34.38;13.82;;;;;;;11.18;100.00;101362.13;5041769;28;20717;-62
2022/01/01 07:57:56;;;;;;;28.48;13.63;;;;;;;11.22;100.00;101367.19;5040815;28;20797;-62
2022/01/01 08:00:23;;;;;;;27.88;14.02;;;;;;;11.24;100.00;101364.47;5023656;28;20451;-62
2022/01/01 08:02:50;;;;;;;33.58;15.48;;;;;;;11.23;100.00;101370.66;5028913;28;20123;-62
2022/01/01 08:05:18;;;;;;;25.85;13.63;;;;;;;11.19;100.00;101374.38;5024191;28;20056;-63
2022/01/01 08:07:45;;;;;;;32.22;14.40;;;;;;;11.19;100.00;101377.00;5021261;28;20401;-62
2022/01/01 08:10:30;;;;;;;26.92;13.95;;;;;;;11.18;100.00;101380.59;5025544;28;20044;-63
2022/01/01 08:12:57;;;;;;;30.85;14.50;;;;;;;11.21;100.00;101383.03;5024320;28;20055;-62
2022/01/01 08:15:25;;;;;;;33.05;14.50;;;;;;;11.20;100.00;101376.94;5021842;28;20033;-63
2022/01/01 08:17:52;;;;;;;28.23;13.43;;;;;;;11.22;100.00;101369.81;4993093;28;20490;-61
2022/01/01 08:20:19;;;;;;;29.13;14.40;;;;;;;11.27;100.00;101382.75;5024667;28;20088;-62
2022/01/01 08:22:46;;;;;;;31.63;13.48;;;;;;;11.25;100.00;101384.59;5023457;28;20057;-62
2022/01/01 08:25:16;;;;;;;28.25;15.02;;;;;;;11.24;100.00;101385.53;4998566;28;20059;-63
2022/01/01 08:27:43;;;;;;;28.15;14.85;;;;;;;11.22;100.00;101390.91;5019319;28;20060;-63
2022/01/01 08:30:11;;;;;;;34.92;15.27;;;;;;;11.26;100.00;101383.69;5024545;28;20107;-63
2022/01/01 08:32:38;;;;;;;33.30;15.25;;;;;;;11.30;100.00;101390.50;5020155;28;20054;-63
2022/01/01 08:35:05;;;;;;;30.40;14.85;;;;;;;11.32;100.00;101380.75;5013655;28;20441;-62
2022/01/01 08:37:32;;;;;;;28.05;13.90;;;;;;;11.36;100.00;101398.13;5015596;28;20050;-63
2022/01/01 08:39:59;;;;;;;31.83;15.55;;;;;;;11.39;100.00;101393.56;5025452;28;20130;-61
2022/01/01 08:42:27;;;;;;;35.75;15.77;;;;;;;11.45;100.00;101400.28;5016721;28;20085;-63
2022/01/01 08:44:54;;;;;;;33.55;15.02;;;;;;;11.41;100.00;101396.94;5023701;28;20142;-63
2022/01/01 08:47:24;;;;;;;36.17;16.08;;;;;;;11.46;100.00;101399.34;5021311;28;20140;-63
2022/01/01 08:49:54;;;;;;;32.42;15.80;;;;;;;11.41;100.00;101402.22;5016259;28;20104;-63
2022/01/01 08:52:22;;;;;;;32.15;15.00;;;;;;;11.43;100.00;101402.13;5020170;28;20055;-63
2022/01/01 08:54:55;;;;;;;34.00;14.75;;;;;;;11.42;100.00;101405.72;5006671;28;20092;-62
2022/01/01 08:57:23;;;;;;;31.63;15.23;;;;;;;11.42;100.00;101416.25;5023721;28;20564;-63
2022/01/01 08:59:50;;;;;;;35.22;15.65;;;;;;;11.43;100.00;101414.47;5003289;28;20061;-62
2022/01/01 09:02:18;;;;;;;32.85;16.33;;;;;;;11.45;100.00;101410.84;5017998;28;20237;-62
2022/01/01 09:04:45;;;;;;;30.75;14.45;;;;;;;11.47;100.00;101421.31;5017327;28;20042;-61
2022/01/01 09:07:13;;;;;;;28.65;14.60;;;;;;;11.48;100.00;101418.56;5020066;28;20046;-62
2022/01/01 09:09:40;;;;;;;26.40;14.65;;;;;;;11.48;100.00;101423.00;5022867;28;20052;-62
2022/01/01 09:12:08;;;;;;;29.17;13.70;;;;;;;11.52;100.00;101428.03;5017965;28;20056;-61
2022/01/01 09:14:36;;;;;;;32.33;14.70;;;;;;;11.52;100.00;101429.84;5018422;28;20517;-62
2022/01/01 09:17:04;;;;;;;30.20;14.50;;;;;;;11.56;100.00;101434.03;5013124;28;20084;-62
2022/01/01 09:19:31;;;;;;;32.42;15.95;;;;;;;11.58;100.00;101440.94;5021335;28;20068;-62
2022/01/01 09:21:58;;;;;;;35.95;16.60;;;;;;;11.67;100.00;101442.25;5013942;28;20510;-61
2022/01/01 09:24:26;;;;;;;33.45;14.82;;;;;;;11.63;100.00;101441.56;5014901;28;20061;-61
2022/01/01 09:26:54;;;;;;;37.80;17.92;;;;;;;11.64;100.00;101443.25;5016715;28;20060;-61
2022/01/01 09:29:21;;;;;;;29.67;14.07;;;;;;;11.69;100.00;101445.66;5010551;28;20485;-61
2022/01/01 09:31:48;;;;;;;30.90;14.63;;;;;;;11.68;100.00;101466.84;5013851;28;20482;-61
2022/01/01 09:34:16;;;;;;;38.20;16.40;;;;;;;11.66;100.00;101451.09;5019110;28;20055;-61
2022/01/01 09:36:43;;;;;;;36.75;14.60;;;;;;;11.64;100.00;101455.59;5015913;28;20068;-62
2022/01/01 09:39:10;;;;;;;31.30;15.55;;;;;;;11.70;100.00;101457.06;5011883;28;20301;-62
2022/01/01 09:41:42;;;;;;;32.03;15.25;;;;;;;11.72;100.00;101461.34;5016709;28;20072;-61
2022/01/01 09:44:13;;;;;;;39.25;15.00;;;;;;;11.67;100.00;101473.91;5015311;28;20064;-61
2022/01/01 09:46:41;;;;;;;30.02;13.82;;;;;;;11.74;100.00;101466.53;5019685;28;20125;-61
2022/01/01 09:49:08;;;;;;;35.90;15.45;;;;;;;11.75;100.00;101470.88;4989707;28;20049;-61
2022/01/01 09:51:35;;;;;;;31.23;14.88;;;;;;;11.76;100.00;101469.97;5021752;28;20099;-59
2022/01/01 09:54:03;;;;;;;30.05;14.02;;;;;;;11.73;100.00;101486.78;5024676;28;20608;-61
2022/01/01 09:56:30;;;;;;;32.83;15.93;;;;;;;11.73;100.00;101480.66;5014185;28;20140;-61
2022/01/01 09:58:57;;;;;;;36.97;17.25;;;;;;;11.74;100.00;101485.00;5017445;28;20046;-61
2022/01/01 10:01:24;;;;;;;36.67;16.80;;;;;;;11.74;100.00;101498.19;5019233;28;20049;-62
2022/01/01 10:03:56;;;;;;;39.92;16.35;;;;;;;11.83;100.00;101492.47;5014444;28;20049;-62
2022/01/01 10:06:26;;;;;;;30.98;14.93;;;;;;;11.81;100.00;101496.97;5000916;28;20141;-62
2022/01/01 10:08:58;;;;;;;37.03;16.75;;;;;;;11.72;100.00;101498.28;5021581;28;20086;-61
2022/01/01 10:11:26;;;;;;;36.20;15.65;;;;;;;11.81;100.00;101496.97;5010695;28;20413;-61
2022/01/01 10:13:54;;;;;;;37.35;15.73;;;;;;;11.82;100.00;101491.63;5015172;28;20146;-62
2022/01/01 10:16:21;;;;;;;36.58;16.23;;;;;;;11.75;100.00;101490.22;5001281;28;20537;-62
2022/01/01 10:18:51;;;;;;;36.42;16.27;;;;;;;11.78;100.00;101484.78;4989297;28;20061;-62
2022/01/01 10:21:24;;;;;;;35.40;16.38;;;;;;;11.82;100.00;101496.03;5027742;28;20054;-61
2022/01/01 10:23:53;;;;;;;36.67;17.60;;;;;;;11.91;100.00;101492.97;5022336;28;20050;-63
2022/01/01 10:29:10;;;;;;;34.80;16.38;;;;;;;11.93;100.00;101498.16;5021928;28;20065;-62
2022/01/01 10:31:38;;;;;;;36.55;15.27;;;;;;;12.01;100.00;101496.81;5017960;28;20046;-62
2022/01/01 10:34:15;;;;;;;37.30;17.00;;;;;;;12.05;100.00;101494.91;5025068;28;20056;-63
2022/01/01 10:36:46;;;;;;;34.28;16.95;;;;;;;12.03;100.00;101507.31;5019337;28;20103;-62
2022/01/01 10:39:17;;;;;;;31.77;16.27;;;;;;;12.01;100.00;101503.91;5024130;28;20054;-62
2022/01/01 10:41:47;;;;;;;31.70;15.50;;;;;;;11.96;100.00;101501.50;5019049;28;20096;-63
2022/01/01 10:44:14;;;;;;;40.63;17.67;;;;;;;11.94;100.00;101503.38;5023105;28;20156;-61
2022/01/01 10:46:42;;;;;;;40.25;17.98;;;;;;;11.88;100.00;101507.16;5004677;28;20137;-62
2022/01/01 10:52:28;;;;;;;46.45;17.75;;;;;;;11.99;100.00;101505.78;5023898;28;20127;-62
2022/01/01 10:55:00;;;;;;;40.00;19.67;;;;;;;11.95;100.00;101514.78;5017549;28;20053;-62
2022/01/01 10:57:35;;;;;;;38.90;18.77;;;;;;;11.94;100.00;101516.56;5015989;28;20366;-62
2022/01/01 11:00:22;;;;;;;39.15;19.15;;;;;;;11.99;100.00;101511.06;5020799;28;20534;-62
2022/01/01 11:02:52;;;;;;;38.13;17.80;;;;;;;11.90;100.00;101505.31;5014648;28;20140;-62
2022/01/01 11:05:27;;;;;;;37.58;17.80;;;;;;;11.97;100.00;101504.97;5025120;28;20487;-62
2022/01/01 11:07:54;;;;;;;36.25;17.33;;;;;;;11.99;100.00;101498.72;5022317;28;20045;-62
2022/01/01 11:10:22;;;;;;;34.88;17.38;;;;;;;12.04;100.00;101496.69;5000294;28;20063;-61
2022/01/01 11:12:50;;;;;;;32.97;15.68;;;;;;;12.04;100.00;101498.47;5022288;28;20071;-61